sensor_id;sensor_type;location;lat;lon;timestamp;temperature;humidity
59208;DHT22;44977;53.132;6.408;2023-02-22T00:04:47;8.60;99.90
59208;DHT22;44977;53.132;6.408;2023-02-22T00:09:47;8.60;99.90
59208;DHT22;44977;53.132;6.408;2023-02-22T00:14:48;8.60;99.90
59208;DHT22;44977;53.132;6.408;2023-02-22T00:19:50;8.60;99.90
59208;DHT22;44977;53.132;6.408;2023-02-22T00:24:51;8.60;99.90
59208;DHT22;44977;53.132;6.408;2023-02-22T00:29:51;8.60;99.90
59208;DHT22;44977;53.132;6.408;2023-02-22T00:34:53;8.60;99.90
59208;DHT22;44977;53.132;6.408;2023-02-22T00:39:53;8.60;99.90
59208;DHT22;44977;53.132;6.408;2023-02-22T00:44:54;8.60;99.90
59208;DHT22;44977;53.132;6.408;2023-02-22T00:49:55;8.50;99.90
59208;DHT22;44977;53.132;6.408;2023-02-22T00:54:56;8.60;99.90
59208;DHT22;44977;53.132;6.408;2023-02-22T00:59:57;8.50;99.90
59208;DHT22;44977;53.132;6.408;2023-02-22T01:04:58;8.50;99.90
59208;DHT22;44977;53.132;6.408;2023-02-22T01:09:59;8.50;99.90
59208;DHT22;44977;53.132;6.408;2023-02-22T01:15:01;8.50;99.90
59208;DHT22;44977;53.132;6.408;2023-02-22T01:20:07;8.40;99.90
59208;DHT22;44977;53.132;6.408;2023-02-22T01:25:21;8.40;99.90
59208;DHT22;44977;53.132;6.408;2023-02-22T01:30:25;8.50;99.90
59208;DHT22;44977;53.132;6.408;2023-02-22T01:35:29;8.40;99.90
59208;DHT22;44977;53.132;6.408;2023-02-22T01:40:32;8.40;99.90
59208;DHT22;44977;53.132;6.408;2023-02-22T01:45:37;8.40;99.90
59208;DHT22;44977;53.132;6.408;2023-02-22T01:50:46;8.40;99.90
59208;DHT22;44977;53.132;6.408;2023-02-22T01:55:48;8.40;99.90
59208;DHT22;44977;53.132;6.408;2023-02-22T02:00:50;8.40;99.90
59208;DHT22;44977;53.132;6.408;2023-02-22T02:05:51;8.40;99.90
59208;DHT22;44977;53.132;6.408;2023-02-22T02:10:56;8.30;99.90
59208;DHT22;44977;53.132;6.408;2023-02-22T02:15:57;8.30;99.90
59208;DHT22;44977;53.132;6.408;2023-02-22T02:26:42;8.40;99.90
59208;DHT22;44977;53.132;6.408;2023-02-22T02:32:02;8.30;99.90
59208;DHT22;44977;53.132;6.408;2023-02-22T02:37:10;8.30;99.90
59208;DHT22;44977;53.132;6.408;2023-02-22T02:42:15;8.30;99.90
59208;DHT22;44977;53.132;6.408;2023-02-22T02:47:26;8.30;99.90
59208;DHT22;44977;53.132;6.408;2023-02-22T02:52:30;8.30;99.90
59208;DHT22;44977;53.132;6.408;2023-02-22T02:57:31;8.30;99.90
59208;DHT22;44977;53.132;6.408;2023-02-22T03:08:00;8.30;99.90
59208;DHT22;44977;53.132;6.408;2023-02-22T03:13:14;8.30;99.90
59208;DHT22;44977;53.132;6.408;2023-02-22T03:29:11;8.20;99.90
59208;DHT22;44977;53.132;6.408;2023-02-22T03:34:15;8.20;99.90
59208;DHT22;44977;53.132;6.408;2023-02-22T03:39:18;8.20;99.90
59208;DHT22;44977;53.132;6.408;2023-02-22T03:44:23;8.20;99.90
59208;DHT22;44977;53.132;6.408;2023-02-22T03:49:56;8.20;99.90
59208;DHT22;44977;53.132;6.408;2023-02-22T03:54:56;8.20;99.90
59208;DHT22;44977;53.132;6.408;2023-02-22T03:59:57;8.20;99.90
59208;DHT22;44977;53.132;6.408;2023-02-22T04:04:58;8.10;99.90
59208;DHT22;44977;53.132;6.408;2023-02-22T04:09:58;8.10;99.90
59208;DHT22;44977;53.132;6.408;2023-02-22T04:15:03;8.10;99.90
59208;DHT22;44977;53.132;6.408;2023-02-22T04:20:04;8.10;99.90
59208;DHT22;44977;53.132;6.408;2023-02-22T04:25:07;8.10;99.90
59208;DHT22;44977;53.132;6.408;2023-02-22T04:30:08;8.10;99.90
59208;DHT22;44977;53.132;6.408;2023-02-22T04:35:09;8.10;99.90
59208;DHT22;44977;53.132;6.408;2023-02-22T04:40:10;8.10;99.90
59208;DHT22;44977;53.132;6.408;2023-02-22T04:45:11;8.10;99.90
59208;DHT22;44977;53.132;6.408;2023-02-22T04:50:13;8.10;99.90
59208;DHT22;44977;53.132;6.408;2023-02-22T04:55:14;8.10;99.90
59208;DHT22;44977;53.132;6.408;2023-02-22T05:00:17;8.10;99.90
59208;DHT22;44977;53.132;6.408;2023-02-22T05:05:21;8.00;99.90
59208;DHT22;44977;53.132;6.408;2023-02-22T05:10:22;8.00;99.90
59208;DHT22;44977;53.132;6.408;2023-02-22T05:15:24;8.00;99.90
59208;DHT22;44977;53.132;6.408;2023-02-22T05:20:30;8.00;99.90
59208;DHT22;44977;53.132;6.408;2023-02-22T05:25:32;8.00;99.90
59208;DHT22;44977;53.132;6.408;2023-02-22T05:30:34;8.00;99.90
59208;DHT22;44977;53.132;6.408;2023-02-22T05:35:35;7.90;99.90
59208;DHT22;44977;53.132;6.408;2023-02-22T05:40:39;7.90;99.90
59208;DHT22;44977;53.132;6.408;2023-02-22T05:45:40;7.90;99.90
59208;DHT22;44977;53.132;6.408;2023-02-22T05:50:40;7.90;99.90
59208;DHT22;44977;53.132;6.408;2023-02-22T05:55:41;7.90;99.90
59208;DHT22;44977;53.132;6.408;2023-02-22T06:00:42;7.90;99.90
59208;DHT22;44977;53.132;6.408;2023-02-22T06:05:42;7.90;99.90
59208;DHT22;44977;53.132;6.408;2023-02-22T06:10:43;7.90;99.90
59208;DHT22;44977;53.132;6.408;2023-02-22T06:15:44;7.80;99.90
59208;DHT22;44977;53.132;6.408;2023-02-22T06:20:45;7.80;99.90
59208;DHT22;44977;53.132;6.408;2023-02-22T06:25:45;7.80;99.90
59208;DHT22;44977;53.132;6.408;2023-02-22T06:30:46;7.80;99.90
59208;DHT22;44977;53.132;6.408;2023-02-22T06:35:47;7.70;99.90
59208;DHT22;44977;53.132;6.408;2023-02-22T06:40:47;7.70;99.90
59208;DHT22;44977;53.132;6.408;2023-02-22T06:45:48;7.70;99.90
59208;DHT22;44977;53.132;6.408;2023-02-22T06:50:49;7.70;99.90
59208;DHT22;44977;53.132;6.408;2023-02-22T06:55:52;7.60;99.90
59208;DHT22;44977;53.132;6.408;2023-02-22T07:00:54;7.60;99.90
59208;DHT22;44977;53.132;6.408;2023-02-22T07:05:54;7.60;99.90
59208;DHT22;44977;53.132;6.408;2023-02-22T07:10:55;7.60;99.90
59208;DHT22;44977;53.132;6.408;2023-02-22T07:15:56;7.50;99.90
59208;DHT22;44977;53.132;6.408;2023-02-22T07:20:57;7.50;99.90
59208;DHT22;44977;53.132;6.408;2023-02-22T07:26:02;7.50;99.90
59208;DHT22;44977;53.132;6.408;2023-02-22T07:31:04;7.50;99.90
59208;DHT22;44977;53.132;6.408;2023-02-22T07:36:05;7.50;99.90
59208;DHT22;44977;53.132;6.408;2023-02-22T07:41:06;7.50;99.90
59208;DHT22;44977;53.132;6.408;2023-02-22T07:46:07;7.40;99.90
59208;DHT22;44977;53.132;6.408;2023-02-22T07:51:08;7.50;99.90
59208;DHT22;44977;53.132;6.408;2023-02-22T07:56:09;7.50;99.90
59208;DHT22;44977;53.132;6.408;2023-02-22T08:01:10;7.50;99.90
59208;DHT22;44977;53.132;6.408;2023-02-22T08:06:10;7.50;99.90
59208;DHT22;44977;53.132;6.408;2023-02-22T08:11:11;7.50;99.90
59208;DHT22;44977;53.132;6.408;2023-02-22T08:16:12;7.50;99.90
59208;DHT22;44977;53.132;6.408;2023-02-22T08:21:12;7.50;99.90
59208;DHT22;44977;53.132;6.408;2023-02-22T08:26:13;7.50;99.90
59208;DHT22;44977;53.132;6.408;2023-02-22T08:31:15;7.60;99.90
59208;DHT22;44977;53.132;6.408;2023-02-22T08:36:15;7.60;99.90
59208;DHT22;44977;53.132;6.408;2023-02-22T08:41:17;7.60;99.90
59208;DHT22;44977;53.132;6.408;2023-02-22T08:46:18;7.50;99.90
59208;DHT22;44977;53.132;6.408;2023-02-22T08:51:19;7.50;99.90
59208;DHT22;44977;53.132;6.408;2023-02-22T08:56:20;7.50;99.90
59208;DHT22;44977;53.132;6.408;2023-02-22T09:01:22;7.50;99.90
59208;DHT22;44977;53.132;6.408;2023-02-22T09:06:29;7.60;99.90
59208;DHT22;44977;53.132;6.408;2023-02-22T09:11:29;7.60;99.90
59208;DHT22;44977;53.132;6.408;2023-02-22T09:16:30;7.60;99.90
59208;DHT22;44977;53.132;6.408;2023-02-22T09:21:31;7.60;99.90
59208;DHT22;44977;53.132;6.408;2023-02-22T09:26:32;7.60;99.90
59208;DHT22;44977;53.132;6.408;2023-02-22T09:31:34;7.70;99.90
59208;DHT22;44977;53.132;6.408;2023-02-22T09:36:35;7.70;99.90
59208;DHT22;44977;53.132;6.408;2023-02-22T09:46:51;7.70;99.90
59208;DHT22;44977;53.132;6.408;2023-02-22T09:52:00;7.80;99.90
59208;DHT22;44977;53.132;6.408;2023-02-22T09:57:09;7.70;99.90
59208;DHT22;44977;53.132;6.408;2023-02-22T10:02:35;7.80;99.90
59208;DHT22;44977;53.132;6.408;2023-02-22T10:07:46;7.80;99.90
59208;DHT22;44977;53.132;6.408;2023-02-22T10:23:57;7.90;99.90
59208;DHT22;44977;53.132;6.408;2023-02-22T10:34:08;7.90;99.90
59208;DHT22;44977;53.132;6.408;2023-02-22T10:39:29;7.90;99.90
59208;DHT22;44977;53.132;6.408;2023-02-22T10:44:32;8.00;99.90
59208;DHT22;44977;53.132;6.408;2023-02-22T10:49:46;8.00;99.90
59208;DHT22;44977;53.132;6.408;2023-02-22T10:54:49;8.10;99.90
59208;DHT22;44977;53.132;6.408;2023-02-22T10:59:51;8.10;99.90
59208;DHT22;44977;53.132;6.408;2023-02-22T11:04:54;8.20;99.90
59208;DHT22;44977;53.132;6.408;2023-02-22T11:09:59;8.30;99.90
59208;DHT22;44977;53.132;6.408;2023-02-22T11:20:23;8.50;99.90
59208;DHT22;44977;53.132;6.408;2023-02-22T11:25:37;8.60;99.90
59208;DHT22;44977;53.132;6.408;2023-02-22T11:30:40;8.70;99.90
59208;DHT22;44977;53.132;6.408;2023-02-22T11:36:03;8.90;99.90
59208;DHT22;44977;53.132;6.408;2023-02-22T11:41:19;9.00;99.90
59208;DHT22;44977;53.132;6.408;2023-02-22T11:46:25;9.00;99.90
59208;DHT22;44977;53.132;6.408;2023-02-22T11:51:40;9.00;99.90
59208;DHT22;44977;53.132;6.408;2023-02-22T11:56:47;9.00;99.90
59208;DHT22;44977;53.132;6.408;2023-02-22T12:01:54;9.00;99.90
59208;DHT22;44977;53.132;6.408;2023-02-22T12:17:54;9.20;99.90
59208;DHT22;44977;53.132;6.408;2023-02-22T12:23:12;9.20;99.90
59208;DHT22;44977;53.132;6.408;2023-02-22T12:28:22;9.30;99.90
59208;DHT22;44977;53.132;6.408;2023-02-22T12:33:27;9.40;99.90
59208;DHT22;44977;53.132;6.408;2023-02-22T12:38:36;9.50;99.90
59208;DHT22;44977;53.132;6.408;2023-02-22T12:44:05;9.60;99.90
59208;DHT22;44977;53.132;6.408;2023-02-22T12:49:27;9.60;99.90
59208;DHT22;44977;53.132;6.408;2023-02-22T12:54:40;9.80;99.90
59208;DHT22;44977;53.132;6.408;2023-02-22T12:59:58;9.80;99.90
59208;DHT22;44977;53.132;6.408;2023-02-22T13:05:01;9.80;99.90
59208;DHT22;44977;53.132;6.408;2023-02-22T13:20:47;9.70;99.90
59208;DHT22;44977;53.132;6.408;2023-02-22T13:36:44;9.80;99.90
59208;DHT22;44977;53.132;6.408;2023-02-22T13:52:14;9.80;99.90
59208;DHT22;44977;53.132;6.408;2023-02-22T13:57:49;9.70;99.90
59208;DHT22;44977;53.132;6.408;2023-02-22T14:13:22;9.70;99.90
59208;DHT22;44977;53.132;6.408;2023-02-22T14:18:36;9.70;99.90
59208;DHT22;44977;53.132;6.408;2023-02-22T14:23:40;9.70;99.90
59208;DHT22;44977;53.132;6.408;2023-02-22T14:28:53;9.60;99.90
59208;DHT22;44977;53.132;6.408;2023-02-22T14:34:09;9.60;99.90
59208;DHT22;44977;53.132;6.408;2023-02-22T14:44:11;9.60;99.90
59208;DHT22;44977;53.132;6.408;2023-02-22T14:49:16;9.70;99.90
59208;DHT22;44977;53.132;6.408;2023-02-22T14:54:43;9.70;99.90
59208;DHT22;44977;53.132;6.408;2023-02-22T15:00:23;9.70;99.90
59208;DHT22;44977;53.132;6.408;2023-02-22T15:05:39;9.70;99.90
59208;DHT22;44977;53.132;6.408;2023-02-22T15:10:45;9.70;99.90
59208;DHT22;44977;53.132;6.408;2023-02-22T15:15:52;9.70;99.90
59208;DHT22;44977;53.132;6.408;2023-02-22T15:20:56;9.70;99.90
59208;DHT22;44977;53.132;6.408;2023-02-22T15:25:57;9.70;99.90
59208;DHT22;44977;53.132;6.408;2023-02-22T15:31:36;9.70;99.90
59208;DHT22;44977;53.132;6.408;2023-02-22T15:36:35;9.70;99.90
59208;DHT22;44977;53.132;6.408;2023-02-22T15:41:36;9.60;99.90
59208;DHT22;44977;53.132;6.408;2023-02-22T15:46:37;9.60;99.90
59208;DHT22;44977;53.132;6.408;2023-02-22T15:51:41;9.60;99.90
59208;DHT22;44977;53.132;6.408;2023-02-22T15:56:50;9.60;99.90
59208;DHT22;44977;53.132;6.408;2023-02-22T16:01:56;9.60;99.90
59208;DHT22;44977;53.132;6.408;2023-02-22T16:07:07;9.60;99.90
59208;DHT22;44977;53.132;6.408;2023-02-22T16:17:36;9.50;99.90
59208;DHT22;44977;53.132;6.408;2023-02-22T16:22:39;9.50;99.90
59208;DHT22;44977;53.132;6.408;2023-02-22T16:27:42;9.50;99.90
59208;DHT22;44977;53.132;6.408;2023-02-22T16:32:48;9.50;99.90
59208;DHT22;44977;53.132;6.408;2023-02-22T16:38:01;9.40;99.90
59208;DHT22;44977;53.132;6.408;2023-02-22T16:43:07;9.40;99.90
59208;DHT22;44977;53.132;6.408;2023-02-22T16:53:19;9.30;99.90
59208;DHT22;44977;53.132;6.408;2023-02-22T16:58:20;9.30;99.90
59208;DHT22;44977;53.132;6.408;2023-02-22T17:03:21;9.20;99.90
59208;DHT22;44977;53.132;6.408;2023-02-22T17:08:21;9.20;99.90
59208;DHT22;44977;53.132;6.408;2023-02-22T17:13:25;9.10;99.90
59208;DHT22;44977;53.132;6.408;2023-02-22T17:18:27;9.10;99.90
59208;DHT22;44977;53.132;6.408;2023-02-22T17:23:29;9.10;99.90
59208;DHT22;44977;53.132;6.408;2023-02-22T17:28:30;9.10;99.90
59208;DHT22;44977;53.132;6.408;2023-02-22T17:33:33;9.00;99.90
59208;DHT22;44977;53.132;6.408;2023-02-22T17:38:34;9.00;99.90
59208;DHT22;44977;53.132;6.408;2023-02-22T17:43:35;9.00;99.90
59208;DHT22;44977;53.132;6.408;2023-02-22T17:48:36;9.00;99.90
59208;DHT22;44977;53.132;6.408;2023-02-22T17:53:38;8.90;99.90
59208;DHT22;44977;53.132;6.408;2023-02-22T17:58:40;8.90;99.90
59208;DHT22;44977;53.132;6.408;2023-02-22T18:03:41;8.90;99.90
59208;DHT22;44977;53.132;6.408;2023-02-22T18:08:41;8.80;99.90
59208;DHT22;44977;53.132;6.408;2023-02-22T18:13:42;8.80;99.90
59208;DHT22;44977;53.132;6.408;2023-02-22T18:18:43;8.80;99.90
59208;DHT22;44977;53.132;6.408;2023-02-22T18:23:43;8.80;99.90
59208;DHT22;44977;53.132;6.408;2023-02-22T18:28:44;8.70;99.90
59208;DHT22;44977;53.132;6.408;2023-02-22T18:33:50;8.70;99.90
59208;DHT22;44977;53.132;6.408;2023-02-22T18:38:52;8.60;99.90
59208;DHT22;44977;53.132;6.408;2023-02-22T18:43:54;8.60;99.90
59208;DHT22;44977;53.132;6.408;2023-02-22T18:48:57;8.60;99.90
59208;DHT22;44977;53.132;6.408;2023-02-22T18:53:58;8.60;99.90
59208;DHT22;44977;53.132;6.408;2023-02-22T18:59:03;8.60;99.90
59208;DHT22;44977;53.132;6.408;2023-02-22T19:04:07;8.50;99.90
59208;DHT22;44977;53.132;6.408;2023-02-22T19:09:12;8.50;99.90
59208;DHT22;44977;53.132;6.408;2023-02-22T19:14:12;8.50;99.90
59208;DHT22;44977;53.132;6.408;2023-02-22T19:19:14;8.50;99.90
59208;DHT22;44977;53.132;6.408;2023-02-22T19:24:20;8.50;99.90
59208;DHT22;44977;53.132;6.408;2023-02-22T19:29:21;8.40;99.90
59208;DHT22;44977;53.132;6.408;2023-02-22T19:34:23;8.40;99.90
59208;DHT22;44977;53.132;6.408;2023-02-22T19:39:27;8.40;99.90
59208;DHT22;44977;53.132;6.408;2023-02-22T19:44:28;8.40;99.90
59208;DHT22;44977;53.132;6.408;2023-02-22T19:49:29;8.40;99.90
59208;DHT22;44977;53.132;6.408;2023-02-22T19:54:30;8.30;99.90
59208;DHT22;44977;53.132;6.408;2023-02-22T19:59:34;8.30;99.90
59208;DHT22;44977;53.132;6.408;2023-02-22T20:04:35;8.30;99.90
59208;DHT22;44977;53.132;6.408;2023-02-22T20:09:36;8.30;99.90
59208;DHT22;44977;53.132;6.408;2023-02-22T20:14:39;8.30;99.90
59208;DHT22;44977;53.132;6.408;2023-02-22T20:19:40;8.30;99.90
59208;DHT22;44977;53.132;6.408;2023-02-22T20:24:41;8.20;99.90
59208;DHT22;44977;53.132;6.408;2023-02-22T20:29:42;8.20;99.90
59208;DHT22;44977;53.132;6.408;2023-02-22T20:34:46;8.20;99.90
59208;DHT22;44977;53.132;6.408;2023-02-22T20:39:49;8.20;99.90
59208;DHT22;44977;53.132;6.408;2023-02-22T20:44:50;8.10;99.90
59208;DHT22;44977;53.132;6.408;2023-02-22T20:49:51;8.10;99.90
59208;DHT22;44977;53.132;6.408;2023-02-22T20:54:52;8.10;99.90
59208;DHT22;44977;53.132;6.408;2023-02-22T20:59:52;8.10;99.90
59208;DHT22;44977;53.132;6.408;2023-02-22T21:04:53;8.00;99.90
59208;DHT22;44977;53.132;6.408;2023-02-22T21:09:54;8.00;99.90
59208;DHT22;44977;53.132;6.408;2023-02-22T21:14:54;8.00;99.90
59208;DHT22;44977;53.132;6.408;2023-02-22T21:19:56;8.00;99.90
59208;DHT22;44977;53.132;6.408;2023-02-22T21:24:57;7.90;99.90
59208;DHT22;44977;53.132;6.408;2023-02-22T21:29:58;7.90;99.90
59208;DHT22;44977;53.132;6.408;2023-02-22T21:34:58;7.90;99.90
59208;DHT22;44977;53.132;6.408;2023-02-22T21:39:59;7.90;99.90
59208;DHT22;44977;53.132;6.408;2023-02-22T21:45:00;7.80;99.90
59208;DHT22;44977;53.132;6.408;2023-02-22T21:50:00;7.80;99.90
59208;DHT22;44977;53.132;6.408;2023-02-22T21:55:01;7.80;99.90
59208;DHT22;44977;53.132;6.408;2023-02-22T22:00:03;7.80;99.90
59208;DHT22;44977;53.132;6.408;2023-02-22T22:05:24;7.80;99.90
59208;DHT22;44977;53.132;6.408;2023-02-22T22:10:33;7.70;99.90
59208;DHT22;44977;53.132;6.408;2023-02-22T22:15:35;7.70;99.90
59208;DHT22;44977;53.132;6.408;2023-02-22T22:20:36;7.70;99.90
59208;DHT22;44977;53.132;6.408;2023-02-22T22:25:38;7.70;99.90
59208;DHT22;44977;53.132;6.408;2023-02-22T22:30:38;7.60;99.90
59208;DHT22;44977;53.132;6.408;2023-02-22T22:35:39;7.60;99.90
59208;DHT22;44977;53.132;6.408;2023-02-22T22:40:41;7.60;99.90
59208;DHT22;44977;53.132;6.408;2023-02-22T22:45:41;7.60;99.90
59208;DHT22;44977;53.132;6.408;2023-02-22T22:50:43;7.60;99.90
59208;DHT22;44977;53.132;6.408;2023-02-22T22:55:46;7.50;99.90
59208;DHT22;44977;53.132;6.408;2023-02-22T23:00:47;7.50;99.90
59208;DHT22;44977;53.132;6.408;2023-02-22T23:05:48;7.50;99.90
59208;DHT22;44977;53.132;6.408;2023-02-22T23:10:49;7.40;99.90
59208;DHT22;44977;53.132;6.408;2023-02-22T23:15:49;7.40;99.90
59208;DHT22;44977;53.132;6.408;2023-02-22T23:20:54;7.40;99.90
59208;DHT22;44977;53.132;6.408;2023-02-22T23:26:09;7.40;99.90
59208;DHT22;44977;53.132;6.408;2023-02-22T23:31:17;7.40;99.90
59208;DHT22;44977;53.132;6.408;2023-02-22T23:36:18;7.40;99.90
59208;DHT22;44977;53.132;6.408;2023-02-22T23:41:19;7.40;99.90
59208;DHT22;44977;53.132;6.408;2023-02-22T23:46:20;7.40;99.90
59208;DHT22;44977;53.132;6.408;2023-02-22T23:51:22;7.40;99.90
59208;DHT22;44977;53.132;6.408;2023-02-22T23:56:26;7.40;99.90
